createdAt,value
2018-02-04T00:01:32.149Z,92.30
2018-02-04T00:04:00.267Z,91.90
2018-02-04T00:06:28.446Z,91.90
2018-02-04T00:08:56.566Z,92.10
2018-02-04T00:11:24.686Z,92.20
2018-02-04T00:13:52.923Z,92.40
2018-02-04T00:16:21.035Z,92.40
2018-02-04T00:18:49.170Z,92.80
2018-02-04T00:21:17.329Z,92.70
2018-02-04T00:23:46.207Z,93.20
2018-02-04T00:26:15.270Z,92.70
2018-02-04T00:28:43.450Z,92.70
2018-02-04T00:31:11.566Z,93.20
2018-02-04T00:33:40.471Z,92.50
2018-02-04T00:36:08.597Z,92.60
2018-02-04T00:38:36.751Z,92.20
2018-02-04T00:41:04.868Z,92.80
2018-02-04T00:43:33.755Z,92.30
2018-02-04T00:46:02.675Z,92.90
2018-02-04T00:48:30.799Z,92.80
2018-02-04T00:50:58.951Z,93.60
2018-02-04T00:53:27.075Z,92.40
2018-02-04T00:55:55.984Z,91.40
2018-02-04T00:58:24.670Z,91.60
2018-02-04T01:00:52.812Z,92.20
2018-02-04T01:03:21.707Z,91.90
2018-02-04T01:05:50.591Z,92.00
2018-02-04T01:08:19.501Z,92.40
2018-02-04T01:10:48.407Z,92.50
2018-02-04T01:13:16.571Z,92.50
2018-02-04T01:15:44.711Z,92.80
2018-02-04T01:18:12.930Z,93.30
2018-02-04T01:20:41.034Z,91.90
2018-02-04T01:23:09.278Z,92.10
2018-02-04T01:25:37.381Z,91.50
2018-02-04T01:28:05.523Z,91.10
2018-02-04T01:30:33.647Z,91.10
2018-02-04T01:33:01.773Z,91.50
2018-02-04T01:35:29.903Z,91.40
2018-02-04T01:37:58.015Z,91.10
2018-02-04T01:40:26.166Z,90.30
2018-02-04T01:42:55.080Z,90.50
2018-02-04T01:45:23.175Z,90.50
2018-02-04T01:48:03.251Z,90.20
2018-02-04T01:50:31.379Z,89.50
2018-02-04T01:52:59.546Z,89.60
2018-02-04T01:55:28.411Z,86.30
2018-02-04T01:57:58.047Z,86.60
2018-02-04T02:00:26.204Z,86.40
2018-02-04T02:02:55.120Z,86.30
2018-02-04T02:05:23.567Z,86.20
2018-02-04T02:07:51.664Z,86.80
2018-02-04T02:10:19.771Z,84.00
2018-02-04T02:12:47.917Z,83.40
2018-02-04T02:15:16.035Z,83.50
2018-02-04T02:17:44.184Z,83.50
2018-02-04T02:20:12.311Z,83.30
2018-02-04T02:22:41.191Z,84.00
2018-02-04T02:25:09.327Z,84.20
2018-02-04T02:27:37.443Z,83.60
2018-02-04T02:30:06.772Z,82.60
2018-02-04T02:32:34.904Z,82.60
2018-02-04T02:35:03.029Z,83.10
2018-02-04T02:37:31.198Z,84.90
2018-02-04T02:39:59.305Z,83.10
2018-02-04T02:42:27.453Z,83.80
2018-02-04T02:44:55.632Z,85.10
2018-02-04T02:47:23.826Z,86.40
2018-02-04T02:49:52.034Z,84.10
2018-02-04T02:52:21.002Z,83.20
2018-02-04T02:54:49.135Z,83.20
2018-02-04T02:57:17.253Z,83.80
2018-02-04T02:59:45.485Z,85.50
